PWSweather.com
Personal Weather Stations
Station Observations
UISISLE1
Newport, Isle ofWight, ISLE OF WIGHT PO30 2JX

NewportIsle ofWight, ISLE OF WIGHT PO30 2JX

Lat: 50.72, Lon: -1.27

Elevation: 45

Station Type: Davis Vantage Pro Plus

http://www.isleofwightweather.co.uk

High Low Average
Temperature 44.6°F7.0°C 34.7°F1.5°C 40.5°F4.7°C
Dew Point 38.1°F3.4°C 30.5°F-0.8°C 35.2°F1.8°C
Winds 9.1 mph 14.6 kmh Calm Calm 3.0 mph WNW4.8 kmh WNW
Wind Gusts 12.4 mph20.0 kmh -- 4.0 mph6.4 kmh
Humidity 90% 75% 81%
Pressure 30.38 in1028.8 mb 30.23 in1023.7 mb -
Precipitation 0.00 in0.0 mm - -
Hour Temp Dew Point Humidity Winds Wind Gusts Pressure Precip Precip Rate Daily Precip Total
12:00 AM 40.8°F4.9°C 34.5°F1.4°C 78% 6.4 mph NNW10.3 kmh NNW 10.3 mph16.6 kmh 30.23 in1023.7 mb - 0.00 in0.0 mm 0.00 in0.0 mm
12:15 AM 40.6°F4.8°C 34.3°F1.3°C 78% 8.8 mph NNW14.2 kmh NNW 12.4 mph20.0 kmh 30.23 in1023.7 mb - 0.00 in0.0 mm 0.00 in0.0 mm
12:30 AM 40.4°F4.7°C 34.1°F1.2°C 78% 4.6 mph NNW7.4 kmh NNW 6.2 mph10.0 kmh 30.24 in1024.0 mb - 0.00 in0.0 mm 0.00 in0.0 mm
12:45 AM 40.1°F4.5°C 33.8°F1.0°C 78% 6.9 mph NNW11.1 kmh NNW 9.3 mph15.0 kmh 30.24 in1024.0 mb - 0.00 in0.0 mm 0.00 in0.0 mm
01:00 AM 39.9°F4.4°C 33.9°F1.1°C 79% 6.9 mph N11.1 kmh N 12.4 mph20.0 kmh 30.24 in1024.0 mb - 0.00 in0.0 mm 0.00 in0.0 mm
01:15 AM 39.8°F4.3°C 33.8°F1.0°C 79% 6.3 mph NNW10.1 kmh NNW 10.3 mph16.6 kmh 30.25 in1024.4 mb - 0.00 in0.0 mm 0.00 in0.0 mm
01:30 AM 39.9°F4.4°C 33.9°F1.1°C 79% 3.3 mph N5.3 kmh N 8.2 mph13.2 kmh 30.25 in1024.4 mb - 0.00 in0.0 mm 0.00 in0.0 mm
01:45 AM 39.7°F4.3°C 33.7°F0.9°C 79% 3.7 mph N6.0 kmh N 11.3 mph18.2 kmh 30.25 in1024.4 mb - 0.00 in0.0 mm 0.00 in0.0 mm
02:00 AM 39.5°F4.2°C 33.5°F0.8°C 79% 3.4 mph NNW5.5 kmh NNW 5.1 mph8.2 kmh 30.26 in1024.7 mb - 0.00 in0.0 mm 0.00 in0.0 mm
02:15 AM 39.3°F4.1°C 33.6°F0.9°C 80% 3.2 mph NNW5.1 kmh NNW 3.1 mph5.0 kmh 30.26 in1024.7 mb - 0.00 in0.0 mm 0.00 in0.0 mm
02:30 AM 39.3°F4.1°C 33.6°F0.9°C 80% 4.4 mph NNW7.1 kmh NNW 5.1 mph8.2 kmh 30.26 in1024.7 mb - 0.00 in0.0 mm 0.00 in0.0 mm
02:45 AM 38.9°F3.8°C 33.3°F0.7°C 80% 2.8 mph NNW4.5 kmh NNW 4.1 mph6.6 kmh 30.26 in1024.7 mb - 0.00 in0.0 mm 0.00 in0.0 mm
03:00 AM 38.9°F3.8°C 33.3°F0.7°C 80% 6.1 mph NNW9.8 kmh NNW 9.3 mph15.0 kmh 30.27 in1025.1 mb - 0.00 in0.0 mm 0.00 in0.0 mm
03:15 AM 39.1°F3.9°C 33.5°F0.8°C 80% 4.7 mph N7.6 kmh N 10.3 mph16.6 kmh 30.27 in1025.1 mb - 0.00 in0.0 mm 0.00 in0.0 mm
03:30 AM 39.2°F4.0°C 33.9°F1.1°C 81% 4.5 mph NNW7.2 kmh NNW 8.2 mph13.2 kmh 30.27 in1025.1 mb - 0.00 in0.0 mm 0.00 in0.0 mm
03:45 AM 39.1°F3.9°C 33.5°F0.8°C 80% 6.6 mph NNW10.6 kmh NNW 10.3 mph16.6 kmh 30.28 in1025.4 mb - 0.00 in0.0 mm 0.00 in0.0 mm
04:00 AM 39.0°F3.9°C 33.4°F0.8°C 80% 4.0 mph NNW6.4 kmh NNW 9.3 mph15.0 kmh 30.28 in1025.4 mb - 0.00 in0.0 mm 0.00 in0.0 mm
04:15 AM 38.6°F3.7°C 33.0°F0.6°C 80% 3.1 mph NNW5.0 kmh NNW 7.2 mph11.6 kmh 30.28 in1025.4 mb - 0.00 in0.0 mm 0.00 in0.0 mm
04:30 AM 38.1°F3.4°C 32.5°F0.3°C 80% 3.3 mph NNW5.3 kmh NNW 5.1 mph8.2 kmh 30.28 in1025.4 mb - 0.00 in0.0 mm 0.00 in0.0 mm
04:45 AM 38.0°F3.3°C 32.7°F0.4°C 81% 4.1 mph NNW6.6 kmh NNW 5.1 mph8.2 kmh 30.29 in1025.7 mb - 0.00 in0.0 mm 0.00 in0.0 mm
05:00 AM 38.0°F3.3°C 33.0°F0.6°C 82% 2.9 mph NW4.7 kmh NW 4.1 mph6.6 kmh 30.30 in1026.1 mb - 0.00 in0.0 mm 0.00 in0.0 mm
05:15 AM 37.9°F3.3°C 32.9°F0.5°C 82% 5.5 mph NW8.9 kmh NW 6.2 mph10.0 kmh 30.30 in1026.1 mb - 0.00 in0.0 mm 0.00 in0.0 mm
05:30 AM 37.9°F3.3°C 32.9°F0.5°C 82% 5.5 mph NW8.9 kmh NW 7.2 mph11.6 kmh 30.30 in1026.1 mb - 0.00 in0.0 mm 0.00 in0.0 mm
05:45 AM 37.9°F3.3°C 32.9°F0.5°C 82% 1.4 mph WSW2.3 kmh WSW 2.1 mph3.4 kmh 30.30 in1026.1 mb - 0.00 in0.0 mm 0.00 in0.0 mm
06:00 AM 37.5°F3.1°C 32.5°F0.3°C 82% 2.0 mph NNW3.2 kmh NNW 6.2 mph10.0 kmh 30.31 in1026.4 mb - 0.00 in0.0 mm 0.00 in0.0 mm
06:15 AM 37.2°F2.9°C 32.2°F0.1°C 82% 2.9 mph NNW4.7 kmh NNW 3.1 mph5.0 kmh 30.31 in1026.4 mb - 0.00 in0.0 mm 0.00 in0.0 mm
06:30 AM 36.9°F2.7°C 32.2°F0.1°C 83% 1.0 mph NW1.6 kmh NW 2.1 mph3.4 kmh 30.32 in1026.8 mb - 0.00 in0.0 mm 0.00 in0.0 mm
06:45 AM 36.9°F2.7°C 32.5°F0.3°C 84% 2.1 mph NNE3.4 kmh NNE 1.0 mph1.6 kmh 30.32 in1026.8 mb - 0.00 in0.0 mm 0.00 in0.0 mm
07:00 AM 37.0°F2.8°C 32.6°F0.3°C 84% 0.1 mph NNW0.2 kmh NNW 1.0 mph1.6 kmh 30.32 in1026.8 mb - 0.00 in0.0 mm 0.00 in0.0 mm
07:15 AM 36.7°F2.6°C 32.3°F0.2°C 84% Calm Calm -- 30.32 in1026.8 mb - 0.00 in0.0 mm 0.00 in0.0 mm
07:30 AM 36.1°F2.3°C 31.7°F-0.2°C 84% 0.5 mph WNW0.8 kmh WNW 1.0 mph1.6 kmh 30.33 in1027.1 mb - 0.00 in0.0 mm 0.00 in0.0 mm
07:45 AM 35.4°F1.9°C 31.0°F-0.6°C 84% Calm Calm -- 30.33 in1027.1 mb - 0.00 in0.0 mm 0.00 in0.0 mm
08:00 AM 34.8°F1.6°C 30.5°F-0.8°C 84% 3.0 mph SW4.8 kmh SW 5.0 mph8.0 kmh 30.34 in1027.4 mb - 0.00 in0.0 mm 0.00 in0.0 mm
08:15 AM 34.7°F1.5°C 30.9°F-0.6°C 86% 2.7 mph WSW4.3 kmh WSW 5.1 mph8.2 kmh 30.34 in1027.4 mb - 0.00 in0.0 mm 0.00 in0.0 mm
08:30 AM 35.1°F1.7°C 31.6°F-0.2°C 87% 2.2 mph NW3.5 kmh NW 3.1 mph5.0 kmh 30.35 in1027.8 mb - 0.00 in0.0 mm 0.00 in0.0 mm
08:45 AM 35.7°F2.1°C 32.5°F0.3°C 88% 3.6 mph W5.8 kmh W 5.1 mph8.2 kmh 30.36 in1028.1 mb - 0.00 in0.0 mm 0.00 in0.0 mm
09:00 AM 36.5°F2.5°C 33.3°F0.7°C 88% 2.3 mph NW3.7 kmh NW 4.1 mph6.6 kmh 30.36 in1028.1 mb - 0.00 in0.0 mm 0.00 in0.0 mm
09:15 AM 37.4°F3.0°C 34.2°F1.2°C 88% 3.6 mph NNW5.8 kmh NNW 6.2 mph10.0 kmh 30.36 in1028.1 mb - 0.00 in0.0 mm 0.00 in0.0 mm
09:30 AM 38.5°F3.6°C 35.0°F1.7°C 87% 4.6 mph NNW7.4 kmh NNW 5.1 mph8.2 kmh 30.36 in1028.1 mb - 0.00 in0.0 mm 0.00 in0.0 mm
09:45 AM 39.6°F4.2°C 35.2°F1.8°C 84% 7.8 mph NNW12.6 kmh NNW 10.3 mph16.6 kmh 30.36 in1028.1 mb - 0.00 in0.0 mm 0.00 in0.0 mm
10:00 AM 40.4°F4.7°C 35.7°F2.1°C 83% 7.8 mph N12.6 kmh N 10.3 mph16.6 kmh 30.37 in1028.4 mb - 0.00 in0.0 mm 0.00 in0.0 mm
10:15 AM 41.4°F5.2°C 36.3°F2.4°C 82% 9.1 mph N14.6 kmh N 11.3 mph18.2 kmh 30.37 in1028.4 mb - 0.00 in0.0 mm 0.00 in0.0 mm
10:30 AM 42.6°F5.9°C 36.9°F2.7°C 80% 8.5 mph N13.7 kmh N 11.3 mph18.2 kmh 30.37 in1028.4 mb - 0.00 in0.0 mm 0.00 in0.0 mm
10:45 AM 42.9°F6.1°C 36.8°F2.7°C 79% 9.1 mph NNW14.6 kmh NNW 12.4 mph20.0 kmh 30.38 in1028.8 mb - 0.00 in0.0 mm 0.00 in0.0 mm
11:00 AM 42.9°F6.1°C 36.8°F2.7°C 79% 5.8 mph NNW9.3 kmh NNW 7.2 mph11.6 kmh 30.37 in1028.4 mb - 0.00 in0.0 mm 0.00 in0.0 mm
11:15 AM 42.9°F6.1°C 36.2°F2.3°C 77% 5.1 mph N8.2 kmh N 7.2 mph11.6 kmh 30.37 in1028.4 mb - 0.00 in0.0 mm 0.00 in0.0 mm
11:30 AM 43.0°F6.1°C 36.3°F2.4°C 77% 8.2 mph N13.2 kmh N 9.3 mph15.0 kmh 30.37 in1028.4 mb - 0.00 in0.0 mm 0.00 in0.0 mm
11:45 AM 43.2°F6.2°C 36.5°F2.5°C 77% 5.0 mph NNE8.0 kmh NNE 7.2 mph11.6 kmh 30.37 in1028.4 mb - 0.00 in0.0 mm 0.00 in0.0 mm
12:00 PM 43.2°F6.2°C 36.5°F2.5°C 77% 3.0 mph NNW4.8 kmh NNW 6.2 mph10.0 kmh 30.36 in1028.1 mb - 0.00 in0.0 mm 0.00 in0.0 mm
12:15 PM 43.4°F6.3°C 36.7°F2.6°C 77% 5.8 mph NNW9.3 kmh NNW 7.2 mph11.6 kmh 30.37 in1028.4 mb - 0.00 in0.0 mm 0.00 in0.0 mm
12:30 PM 43.9°F6.6°C 37.2°F2.9°C 77% 6.1 mph NNW9.8 kmh NNW 6.2 mph10.0 kmh 30.36 in1028.1 mb - 0.00 in0.0 mm 0.00 in0.0 mm
12:45 PM 44.1°F6.7°C 37.4°F3.0°C 77% 4.2 mph NNW6.8 kmh NNW 6.2 mph10.0 kmh 30.36 in1028.1 mb - 0.00 in0.0 mm 0.00 in0.0 mm
01:00 PM 44.4°F6.9°C 37.6°F3.1°C 77% 4.4 mph NW7.1 kmh NW 6.2 mph10.0 kmh 30.36 in1028.1 mb - 0.00 in0.0 mm 0.00 in0.0 mm
01:15 PM 44.4°F6.9°C 37.3°F2.9°C 76% 2.7 mph NW4.3 kmh NW 4.1 mph6.6 kmh 30.36 in1028.1 mb - 0.00 in0.0 mm 0.00 in0.0 mm
01:30 PM 44.6°F7.0°C 37.5°F3.1°C 76% 2.7 mph NNW4.3 kmh NNW 4.1 mph6.6 kmh 30.36 in1028.1 mb - 0.00 in0.0 mm 0.00 in0.0 mm
01:45 PM 44.6°F7.0°C 37.5°F3.1°C 76% 1.5 mph NNW2.4 kmh NNW 6.2 mph10.0 kmh 30.35 in1027.8 mb - 0.00 in0.0 mm 0.00 in0.0 mm
02:00 PM 44.6°F7.0°C 37.5°F3.1°C 76% 4.0 mph N6.4 kmh N 6.2 mph10.0 kmh 30.35 in1027.8 mb - 0.00 in0.0 mm 0.00 in0.0 mm
02:15 PM 44.6°F7.0°C 37.2°F2.9°C 75% 2.4 mph NW3.9 kmh NW 6.2 mph10.0 kmh 30.35 in1027.8 mb - 0.00 in0.0 mm 0.00 in0.0 mm
02:30 PM 44.6°F7.0°C 37.1°F2.8°C 75% 2.2 mph NW3.5 kmh NW 4.1 mph6.6 kmh 30.35 in1027.8 mb - 0.00 in0.0 mm 0.00 in0.0 mm
02:45 PM 44.5°F6.9°C 37.1°F2.8°C 75% 1.9 mph NW3.1 kmh NW 3.1 mph5.0 kmh 30.35 in1027.8 mb - 0.00 in0.0 mm 0.00 in0.0 mm
03:00 PM 44.4°F6.9°C 37.0°F2.8°C 75% 3.8 mph N6.1 kmh N 7.2 mph11.6 kmh 30.35 in1027.8 mb - 0.00 in0.0 mm 0.00 in0.0 mm
03:15 PM 44.3°F6.8°C 36.9°F2.7°C 75% 1.6 mph NW2.6 kmh NW 5.1 mph8.2 kmh 30.35 in1027.8 mb - 0.00 in0.0 mm 0.00 in0.0 mm
03:30 PM 44.3°F6.8°C 37.2°F2.9°C 76% 1.8 mph NW2.9 kmh NW 4.1 mph6.6 kmh 30.36 in1028.1 mb - 0.00 in0.0 mm 0.00 in0.0 mm
03:45 PM 44.1°F6.7°C 37.0°F2.8°C 76% 0.5 mph NNW0.8 kmh NNW 2.1 mph3.4 kmh 30.35 in1027.8 mb - 0.00 in0.0 mm 0.00 in0.0 mm
04:00 PM 44.0°F6.7°C 36.9°F2.7°C 76% 1.0 mph NNW1.6 kmh NNW 4.1 mph6.6 kmh 30.36 in1028.1 mb - 0.00 in0.0 mm 0.00 in0.0 mm
04:15 PM 43.8°F6.6°C 36.7°F2.6°C 76% 0.1 mph NNW0.2 kmh NNW -- 30.36 in1028.1 mb - 0.00 in0.0 mm 0.00 in0.0 mm
04:30 PM 43.7°F6.5°C 36.6°F2.6°C 76% 0.1 mph NNW0.2 kmh NNW -- 30.36 in1028.1 mb - 0.00 in0.0 mm 0.00 in0.0 mm
04:45 PM 43.5°F6.4°C 36.5°F2.5°C 76% 0.1 mph NNW0.2 kmh NNW 1.0 mph1.6 kmh 30.36 in1028.1 mb - 0.00 in0.0 mm 0.00 in0.0 mm
05:00 PM 43.4°F6.3°C 36.7°F2.6°C 77% 0.4 mph NNW0.6 kmh NNW 2.1 mph3.4 kmh 30.36 in1028.1 mb - 0.00 in0.0 mm 0.00 in0.0 mm
05:15 PM 43.1°F6.2°C 36.4°F2.4°C 77% 0.3 mph WNW0.5 kmh WNW 1.0 mph1.6 kmh 30.36 in1028.1 mb - 0.00 in0.0 mm 0.00 in0.0 mm
05:30 PM 42.8°F6.0°C 36.1°F2.3°C 77% Calm Calm -- 30.36 in1028.1 mb - 0.00 in0.0 mm 0.00 in0.0 mm
05:45 PM 42.3°F5.7°C 35.9°F2.2°C 78% Calm Calm -- 30.36 in1028.1 mb - 0.00 in0.0 mm 0.00 in0.0 mm
06:00 PM 41.5°F5.3°C 35.2°F1.8°C 78% Calm Calm -- 30.36 in1028.1 mb - 0.00 in0.0 mm 0.00 in0.0 mm
06:15 PM 40.9°F4.9°C 35.2°F1.8°C 80% Calm Calm -- 30.36 in1028.1 mb - 0.00 in0.0 mm 0.00 in0.0 mm
06:30 PM 40.4°F4.7°C 35.4°F1.9°C 82% Calm Calm -- 30.37 in1028.4 mb - 0.00 in0.0 mm 0.00 in0.0 mm
06:45 PM 40.3°F4.6°C 35.8°F2.1°C 84% Calm Calm -- 30.36 in1028.1 mb - 0.00 in0.0 mm 0.00 in0.0 mm
07:00 PM 40.2°F4.6°C 36.1°F2.3°C 85% Calm Calm -- 30.36 in1028.1 mb - 0.00 in0.0 mm 0.00 in0.0 mm
07:15 PM 40.1°F4.5°C 36.2°F2.3°C 86% Calm Calm -- 30.36 in1028.1 mb - 0.00 in0.0 mm 0.00 in0.0 mm
07:30 PM 40.1°F4.5°C 36.2°F2.3°C 86% Calm Calm -- 30.36 in1028.1 mb - 0.00 in0.0 mm 0.00 in0.0 mm
07:45 PM 40.2°F4.6°C 36.6°F2.6°C 87% Calm Calm -- 30.35 in1027.8 mb - 0.00 in0.0 mm 0.00 in0.0 mm
08:00 PM 40.3°F4.6°C 36.7°F2.6°C 87% Calm Calm -- 30.36 in1028.1 mb - 0.00 in0.0 mm 0.00 in0.0 mm
08:15 PM 40.4°F4.7°C 36.8°F2.7°C 87% Calm Calm 1.0 mph1.6 kmh 30.35 in1027.8 mb - 0.00 in0.0 mm 0.00 in0.0 mm
08:30 PM 40.5°F4.7°C 37.2°F2.9°C 88% Calm Calm -- 30.35 in1027.8 mb - 0.00 in0.0 mm 0.00 in0.0 mm
08:45 PM 40.6°F4.8°C 37.3°F2.9°C 88% Calm Calm -- 30.35 in1027.8 mb - 0.00 in0.0 mm 0.00 in0.0 mm
09:00 PM 40.6°F4.8°C 37.3°F2.9°C 88% Calm Calm -- 30.35 in1027.8 mb - 0.00 in0.0 mm 0.00 in0.0 mm
09:15 PM 40.5°F4.7°C 37.2°F2.9°C 88% Calm Calm -- 30.35 in1027.8 mb - 0.00 in0.0 mm 0.00 in0.0 mm
09:30 PM 40.3°F4.6°C 37.0°F2.8°C 88% Calm Calm -- 30.35 in1027.8 mb - 0.00 in0.0 mm 0.00 in0.0 mm
09:45 PM 40.2°F4.6°C 36.9°F2.7°C 88% Calm Calm -- 30.35 in1027.8 mb - 0.00 in0.0 mm 0.00 in0.0 mm
10:00 PM 40.0°F4.4°C 36.8°F2.7°C 88% 1.0 mph WSW1.6 kmh WSW 2.0 mph3.2 kmh 30.34 in1027.4 mb - 0.00 in0.0 mm 0.00 in0.0 mm
10:15 PM 40.2°F4.6°C 37.2°F2.9°C 89% Calm Calm -- 30.34 in1027.4 mb - 0.00 in0.0 mm 0.00 in0.0 mm
10:45 PM 40.5°F4.7°C 37.5°F3.1°C 89% Calm Calm -- 30.34 in1027.4 mb - 0.00 in0.0 mm 0.00 in0.0 mm
11:00 PM 40.6°F4.8°C 37.9°F3.3°C 90% Calm Calm -- 30.33 in1027.1 mb - 0.00 in0.0 mm 0.00 in0.0 mm
11:15 PM 40.6°F4.8°C 37.6°F3.1°C 89% Calm Calm -- 30.34 in1027.4 mb - 0.00 in0.0 mm 0.00 in0.0 mm
11:30 PM 40.7°F4.8°C 38.0°F3.3°C 90% Calm Calm -- 30.34 in1027.4 mb - 0.00 in0.0 mm 0.00 in0.0 mm
11:45 PM 40.8°F4.9°C 38.1°F3.4°C 90% 0.1 mph SW0.2 kmh SW 1.0 mph1.6 kmh 30.33 in1027.1 mb - 0.00 in0.0 mm 0.00 in0.0 mm